createdAt,value
2023-11-28T03:50:47.713Z,71.63
2023-11-28T03:54:49.950Z,73.47
2023-11-28T03:58:51.630Z,75.32
2023-11-28T04:02:54.118Z,75.99
2023-11-28T04:06:55.991Z,86.98
2023-11-28T04:10:57.588Z,90.34
2023-11-28T04:14:59.362Z,90.80
2023-11-28T04:19:01.555Z,91.51
2023-11-28T04:23:03.783Z,89.39
2023-11-28T04:27:06.118Z,91.13
2023-11-28T04:31:17.171Z,88.56
2023-11-28T04:35:21.051Z,85.67
2023-11-28T04:39:23.082Z,85.10
2023-11-28T04:43:29.834Z,86.57
2023-11-28T04:47:31.570Z,91.04
2023-11-28T04:51:33.111Z,89.34
2023-11-28T04:55:34.686Z,88.31
2023-11-28T04:59:36.301Z,85.15
2023-11-28T05:03:38.070Z,85.61
2023-11-28T05:07:39.760Z,81.44
2023-11-28T05:11:43.083Z,85.62
2023-11-28T05:15:44.656Z,80.11
2023-11-28T05:19:46.983Z,80.40
2023-11-28T05:23:48.666Z,81.25
2023-11-28T05:27:50.738Z,78.32
2023-11-28T14:02:32.189Z,50.75
2023-11-28T14:06:42.231Z,51.74
2023-11-28T14:15:34.776Z,51.73
2023-11-28T14:19:37.643Z,50.05
2023-11-28T14:23:39.143Z,51.77
2023-11-28T14:27:41.909Z,49.79
2023-11-28T14:31:43.734Z,49.47
2023-11-28T14:35:45.332Z,49.41
2023-11-28T14:39:47.746Z,47.27
2023-11-28T14:43:49.438Z,47.83
2023-11-28T14:47:51.986Z,47.87
2023-11-28T14:51:53.552Z,47.10
2023-11-28T14:55:55.301Z,46.17
2023-11-28T14:59:57.173Z,46.04
2023-11-28T15:04:52.426Z,46.63
2023-11-28T15:08:54.755Z,46.92
2023-11-28T15:12:58.420Z,47.81
2023-11-28T15:17:00.866Z,47.45
2023-11-28T15:21:03.932Z,48.28
2023-11-28T15:25:05.674Z,48.54
2023-11-28T15:29:09.189Z,46.37
2023-11-28T15:37:49.300Z,44.72
2023-11-28T15:41:54.363Z,43.71
2023-11-28T15:45:56.095Z,43.78
2023-11-28T15:49:57.701Z,44.64
2023-11-28T15:53:59.784Z,45.36
2023-11-28T15:58:01.314Z,44.81
2023-11-28T16:02:03.371Z,44.94
2023-11-28T16:06:05.133Z,44.96
2023-11-28T16:10:09.023Z,44.80
2023-11-28T16:14:11.412Z,44.62
2023-11-28T16:18:13.316Z,44.94
2023-11-28T16:22:14.943Z,43.89
2023-11-28T16:26:22.935Z,43.77
2023-11-28T16:30:24.811Z,44.97
2023-11-28T16:39:08.502Z,45.34
2023-11-28T16:43:10.794Z,45.85
2023-11-28T16:47:12.292Z,46.81
2023-11-28T16:51:15.310Z,46.10
2023-11-28T16:55:19.158Z,46.48
2023-11-28T16:59:21.559Z,46.36
2023-11-28T17:03:23.306Z,45.89
2023-11-28T17:07:24.840Z,48.14
2023-11-28T17:11:27.279Z,49.08
2023-11-28T17:15:28.818Z,49.44
2023-11-28T17:19:30.360Z,48.50
2023-11-28T17:23:36.049Z,49.56
2023-11-28T17:27:40.080Z,48.22
2023-11-28T17:37:24.272Z,48.77
2023-11-28T17:47:14.294Z,48.72
2023-11-28T17:55:53.231Z,48.49
2023-11-28T17:59:55.199Z,48.72
2023-11-28T18:08:33.694Z,46.68
2023-11-28T18:35:10.575Z,44.85
2023-11-28T18:39:14.282Z,45.28
2023-11-28T18:57:34.218Z,50.00
2023-11-28T19:06:14.023Z,49.24
2023-11-28T19:10:16.232Z,48.50
2023-11-28T19:18:55.617Z,48.71
2023-11-28T19:27:28.143Z,49.29
2023-11-28T19:31:32.212Z,49.32
2023-11-28T19:35:34.154Z,49.15
2023-11-28T19:39:35.709Z,49.48
2023-11-28T20:01:50.014Z,51.96
2023-11-28T20:05:52.533Z,52.88
2023-11-28T20:09:57.224Z,51.19
2023-11-28T20:13:58.799Z,52.07
2023-11-28T20:18:00.419Z,51.41
2023-11-28T20:55:08.323Z,50.26
2023-11-28T20:59:10.050Z,50.50
2023-11-28T21:27:15.837Z,50.04
2023-11-28T21:31:18.186Z,51.64
2023-11-28T21:35:19.949Z,52.03
2023-11-28T21:39:21.482Z,53.57
2023-11-28T21:43:25.080Z,54.78
2023-11-28T21:47:26.707Z,55.80
2023-11-28T21:56:38.562Z,56.98
2023-11-28T22:00:40.222Z,57.17
2023-11-28T22:04:41.869Z,56.50
2023-11-28T22:08:53.806Z,55.68
2023-11-28T22:31:36.471Z,66.93
2023-11-28T22:35:38.321Z,65.46
2023-11-28T22:39:40.060Z,68.24
2023-11-28T22:43:41.709Z,67.88
2023-11-28T22:47:43.489Z,67.37
2023-11-28T22:51:45.783Z,70.14
2023-11-28T22:55:47.477Z,71.43
2023-11-28T22:59:48.987Z,72.88
2023-11-28T23:09:39.085Z,73.71
2023-11-28T23:13:40.465Z,73.62
2023-11-28T23:17:42.048Z,72.83
2023-11-28T23:26:49.805Z,75.91
2023-11-28T23:35:22.256Z,76.27
2023-11-28T23:39:24.049Z,83.69
2023-11-28T23:57:18.985Z,80.68
